Santa Vitoria do Palmar, Brazil
Current Conditions -  °F | °C
As of 2:00 PM on Friday 28 Nov 2014 (Local Time) from SULS Reporting Station
Clear Clear  
Wind Chill: 81°   Ceiling: Unl
Heat Index: 81°   Visibility: 6mi
Dew Point: 48°   Wind: 3mph
Humidity: 32%   Direction: 50°NE
Pressure: 30.03"   Gusts: NA
Location:  33.52°S, 53.37°W
Report Text: SULS 281600Z 05003KT CAVOK 27/09 Q1017
Loading
Personal Weather Stations






























Interactive Weather Map New forecast layout! Learn more

10-Day Weather Forecast

Advertisements
Track Severe Weather on mobile